sensor_id;sensor_type;location;lat;lon;timestamp;P1;durP1;ratioP1;P2;durP2;ratioP2
34920;SDS011;21128;50.016;20.002;2023-06-14T00:00:46;17.87;;;12.90;;
34920;SDS011;21128;50.016;20.002;2023-06-14T00:03:35;20.53;;;11.67;;
34920;SDS011;21128;50.016;20.002;2023-06-14T00:06:02;17.95;;;12.30;;
34920;SDS011;21128;50.016;20.002;2023-06-14T00:08:29;18.20;;;11.83;;
34920;SDS011;21128;50.016;20.002;2023-06-14T00:10:56;18.67;;;10.43;;
34920;SDS011;21128;50.016;20.002;2023-06-14T00:13:23;15.97;;;10.47;;
34920;SDS011;21128;50.016;20.002;2023-06-14T00:15:50;17.07;;;10.80;;
34920;SDS011;21128;50.016;20.002;2023-06-14T00:18:22;12.68;;;9.93;;
34920;SDS011;21128;50.016;20.002;2023-06-14T00:20:56;19.67;;;10.60;;
34920;SDS011;21128;50.016;20.002;2023-06-14T00:23:23;17.60;;;11.07;;
34920;SDS011;21128;50.016;20.002;2023-06-14T00:25:50;21.43;;;11.53;;
34920;SDS011;21128;50.016;20.002;2023-06-14T00:28:16;14.93;;;10.80;;
34920;SDS011;21128;50.016;20.002;2023-06-14T00:30:44;17.17;;;11.20;;
34920;SDS011;21128;50.016;20.002;2023-06-14T00:33:13;15.17;;;10.93;;
34920;SDS011;21128;50.016;20.002;2023-06-14T00:35:40;18.43;;;10.40;;
34920;SDS011;21128;50.016;20.002;2023-06-14T00:38:07;17.57;;;11.05;;
34920;SDS011;21128;50.016;20.002;2023-06-14T00:40:34;22.25;;;14.60;;
34920;SDS011;21128;50.016;20.002;2023-06-14T00:43:01;25.00;;;19.10;;
34920;SDS011;21128;50.016;20.002;2023-06-14T00:45:28;24.27;;;19.33;;
34920;SDS011;21128;50.016;20.002;2023-06-14T00:47:55;30.87;;;18.90;;
34920;SDS011;21128;50.016;20.002;2023-06-14T00:50:23;25.82;;;17.77;;
34920;SDS011;21128;50.016;20.002;2023-06-14T00:52:50;25.77;;;18.60;;
34920;SDS011;21128;50.016;20.002;2023-06-14T00:55:17;26.43;;;18.97;;
34920;SDS011;21128;50.016;20.002;2023-06-14T00:57:44;23.13;;;14.00;;
34920;SDS011;21128;50.016;20.002;2023-06-14T01:00:12;21.00;;;15.00;;
34920;SDS011;21128;50.016;20.002;2023-06-14T01:02:40;22.40;;;14.83;;
34920;SDS011;21128;50.016;20.002;2023-06-14T01:05:07;16.77;;;10.90;;
34920;SDS011;21128;50.016;20.002;2023-06-14T01:10:26;19.53;;;13.03;;
34920;SDS011;21128;50.016;20.002;2023-06-14T01:15:47;24.03;;;14.27;;
34920;SDS011;21128;50.016;20.002;2023-06-14T01:18:17;19.90;;;13.77;;
34920;SDS011;21128;50.016;20.002;2023-06-14T01:20:45;23.30;;;15.57;;
34920;SDS011;21128;50.016;20.002;2023-06-14T01:23:16;23.47;;;16.43;;
34920;SDS011;21128;50.016;20.002;2023-06-14T01:25:44;25.00;;;17.10;;
34920;SDS011;21128;50.016;20.002;2023-06-14T01:28:14;27.70;;;16.97;;
34920;SDS011;21128;50.016;20.002;2023-06-14T01:30:44;23.90;;;15.90;;
34920;SDS011;21128;50.016;20.002;2023-06-14T01:33:14;26.23;;;19.07;;
34920;SDS011;21128;50.016;20.002;2023-06-14T01:35:45;28.40;;;18.10;;
34920;SDS011;21128;50.016;20.002;2023-06-14T01:38:13;25.87;;;16.97;;
34920;SDS011;21128;50.016;20.002;2023-06-14T01:40:42;25.93;;;16.83;;
34920;SDS011;21128;50.016;20.002;2023-06-14T01:43:14;25.47;;;16.63;;
34920;SDS011;21128;50.016;20.002;2023-06-14T01:45:42;24.07;;;16.23;;
34920;SDS011;21128;50.016;20.002;2023-06-14T01:48:12;23.47;;;15.30;;
34920;SDS011;21128;50.016;20.002;2023-06-14T01:50:40;23.93;;;16.43;;
34920;SDS011;21128;50.016;20.002;2023-06-14T01:53:07;25.70;;;16.33;;
34920;SDS011;21128;50.016;20.002;2023-06-14T01:55:36;23.33;;;14.97;;
34920;SDS011;21128;50.016;20.002;2023-06-14T01:58:05;27.33;;;15.80;;
34920;SDS011;21128;50.016;20.002;2023-06-14T02:00:32;20.87;;;14.87;;
34920;SDS011;21128;50.016;20.002;2023-06-14T02:02:59;25.20;;;14.93;;
34920;SDS011;21128;50.016;20.002;2023-06-14T02:05:26;21.57;;;15.47;;
34920;SDS011;21128;50.016;20.002;2023-06-14T02:07:53;22.77;;;14.30;;
34920;SDS011;21128;50.016;20.002;2023-06-14T02:10:20;28.27;;;15.00;;
34920;SDS011;21128;50.016;20.002;2023-06-14T02:12:47;21.82;;;14.33;;
34920;SDS011;21128;50.016;20.002;2023-06-14T02:15:15;22.17;;;14.47;;
34920;SDS011;21128;50.016;20.002;2023-06-14T02:17:46;23.63;;;15.00;;
34920;SDS011;21128;50.016;20.002;2023-06-14T02:20:13;26.67;;;15.17;;
34920;SDS011;21128;50.016;20.002;2023-06-14T02:22:41;24.20;;;14.80;;
34920;SDS011;21128;50.016;20.002;2023-06-14T02:25:08;24.47;;;14.55;;
34920;SDS011;21128;50.016;20.002;2023-06-14T02:27:35;26.97;;;15.07;;
34920;SDS011;21128;50.016;20.002;2023-06-14T02:30:02;22.57;;;14.83;;
34920;SDS011;21128;50.016;20.002;2023-06-14T02:32:29;21.97;;;14.60;;
34920;SDS011;21128;50.016;20.002;2023-06-14T02:34:57;22.93;;;15.17;;
34920;SDS011;21128;50.016;20.002;2023-06-14T02:37:24;26.45;;;16.85;;
34920;SDS011;21128;50.016;20.002;2023-06-14T02:39:51;24.87;;;16.37;;
34920;SDS011;21128;50.016;20.002;2023-06-14T02:42:18;27.33;;;16.23;;
34920;SDS011;21128;50.016;20.002;2023-06-14T02:44:45;26.12;;;16.73;;
34920;SDS011;21128;50.016;20.002;2023-06-14T02:47:13;25.87;;;15.67;;
34920;SDS011;21128;50.016;20.002;2023-06-14T02:49:40;25.40;;;16.03;;
34920;SDS011;21128;50.016;20.002;2023-06-14T02:52:07;25.53;;;16.23;;
34920;SDS011;21128;50.016;20.002;2023-06-14T02:54:35;35.20;;;15.78;;
34920;SDS011;21128;50.016;20.002;2023-06-14T02:57:02;26.45;;;14.20;;
34920;SDS011;21128;50.016;20.002;2023-06-14T02:59:29;22.90;;;14.00;;
34920;SDS011;21128;50.016;20.002;2023-06-14T03:01:56;27.17;;;14.47;;
34920;SDS011;21128;50.016;20.002;2023-06-14T03:04:23;23.83;;;14.33;;
34920;SDS011;21128;50.016;20.002;2023-06-14T03:06:52;26.77;;;15.30;;
34920;SDS011;21128;50.016;20.002;2023-06-14T03:09:20;31.40;;;16.63;;
34920;SDS011;21128;50.016;20.002;2023-06-14T03:11:47;30.73;;;17.43;;
34920;SDS011;21128;50.016;20.002;2023-06-14T03:14:14;31.03;;;19.10;;
34920;SDS011;21128;50.016;20.002;2023-06-14T03:16:41;29.60;;;18.15;;
34920;SDS011;21128;50.016;20.002;2023-06-14T03:19:08;27.87;;;18.47;;
34920;SDS011;21128;50.016;20.002;2023-06-14T03:21:35;32.35;;;19.50;;
34920;SDS011;21128;50.016;20.002;2023-06-14T03:24:02;30.07;;;18.40;;
34920;SDS011;21128;50.016;20.002;2023-06-14T03:26:30;28.30;;;17.37;;
34920;SDS011;21128;50.016;20.002;2023-06-14T03:28:58;33.40;;;18.93;;
34920;SDS011;21128;50.016;20.002;2023-06-14T03:31:25;34.88;;;18.60;;
34920;SDS011;21128;50.016;20.002;2023-06-14T03:33:52;30.47;;;18.33;;
34920;SDS011;21128;50.016;20.002;2023-06-14T03:36:19;34.67;;;18.03;;
34920;SDS011;21128;50.016;20.002;2023-06-14T03:38:46;33.30;;;18.53;;
34920;SDS011;21128;50.016;20.002;2023-06-14T03:41:13;32.93;;;16.83;;
34920;SDS011;21128;50.016;20.002;2023-06-14T03:43:40;30.40;;;16.87;;
34920;SDS011;21128;50.016;20.002;2023-06-14T03:46:06;33.33;;;17.55;;
34920;SDS011;21128;50.016;20.002;2023-06-14T03:48:33;38.53;;;18.57;;
34920;SDS011;21128;50.016;20.002;2023-06-14T03:51:00;36.50;;;17.97;;
34920;SDS011;21128;50.016;20.002;2023-06-14T03:53:28;28.95;;;18.42;;
34920;SDS011;21128;50.016;20.002;2023-06-14T03:55:56;35.75;;;17.60;;
34920;SDS011;21128;50.016;20.002;2023-06-14T03:58:24;35.37;;;17.23;;
34920;SDS011;21128;50.016;20.002;2023-06-14T04:00:51;30.70;;;15.80;;
34920;SDS011;21128;50.016;20.002;2023-06-14T04:03:18;34.67;;;17.47;;
34920;SDS011;21128;50.016;20.002;2023-06-14T04:05:46;31.23;;;17.02;;
34920;SDS011;21128;50.016;20.002;2023-06-14T04:08:15;33.60;;;17.50;;
34920;SDS011;21128;50.016;20.002;2023-06-14T04:10:45;29.97;;;17.77;;
34920;SDS011;21128;50.016;20.002;2023-06-14T04:13:12;29.20;;;16.95;;
34920;SDS011;21128;50.016;20.002;2023-06-14T04:15:39;34.77;;;17.50;;
34920;SDS011;21128;50.016;20.002;2023-06-14T04:18:12;39.55;;;18.10;;
34920;SDS011;21128;50.016;20.002;2023-06-14T04:20:39;42.63;;;17.30;;
34920;SDS011;21128;50.016;20.002;2023-06-14T04:23:15;31.70;;;17.30;;
34920;SDS011;21128;50.016;20.002;2023-06-14T04:25:48;38.03;;;19.10;;
34920;SDS011;21128;50.016;20.002;2023-06-14T04:28:16;38.65;;;19.75;;
34920;SDS011;21128;50.016;20.002;2023-06-14T04:30:43;43.17;;;18.30;;
34920;SDS011;21128;50.016;20.002;2023-06-14T04:33:14;32.27;;;18.00;;
34920;SDS011;21128;50.016;20.002;2023-06-14T04:35:41;31.40;;;18.02;;
34920;SDS011;21128;50.016;20.002;2023-06-14T04:38:08;32.42;;;18.57;;
34920;SDS011;21128;50.016;20.002;2023-06-14T04:40:36;32.60;;;18.30;;
34920;SDS011;21128;50.016;20.002;2023-06-14T04:43:09;40.57;;;20.33;;
34920;SDS011;21128;50.016;20.002;2023-06-14T04:45:38;39.77;;;21.13;;
34920;SDS011;21128;50.016;20.002;2023-06-14T04:48:06;41.37;;;20.40;;
34920;SDS011;21128;50.016;20.002;2023-06-14T04:50:33;41.83;;;19.85;;
34920;SDS011;21128;50.016;20.002;2023-06-14T04:53:01;34.50;;;20.07;;
34920;SDS011;21128;50.016;20.002;2023-06-14T04:55:29;41.10;;;19.83;;
34920;SDS011;21128;50.016;20.002;2023-06-14T04:57:56;39.27;;;20.60;;
34920;SDS011;21128;50.016;20.002;2023-06-14T05:00:23;41.53;;;19.70;;
34920;SDS011;21128;50.016;20.002;2023-06-14T05:02:50;47.98;;;20.65;;
34920;SDS011;21128;50.016;20.002;2023-06-14T05:05:17;41.13;;;22.10;;
34920;SDS011;21128;50.016;20.002;2023-06-14T05:07:46;44.47;;;21.60;;
34920;SDS011;21128;50.016;20.002;2023-06-14T05:10:13;45.93;;;20.87;;
34920;SDS011;21128;50.016;20.002;2023-06-14T05:12:40;44.35;;;22.00;;
34920;SDS011;21128;50.016;20.002;2023-06-14T05:15:10;47.30;;;22.10;;
34920;SDS011;21128;50.016;20.002;2023-06-14T05:17:37;44.80;;;21.53;;
34920;SDS011;21128;50.016;20.002;2023-06-14T05:20:04;41.05;;;22.02;;
34920;SDS011;21128;50.016;20.002;2023-06-14T05:22:33;46.03;;;22.33;;
34920;SDS011;21128;50.016;20.002;2023-06-14T05:25:00;45.17;;;21.82;;
34920;SDS011;21128;50.016;20.002;2023-06-14T05:27:27;38.60;;;21.17;;
34920;SDS011;21128;50.016;20.002;2023-06-14T05:29:54;44.33;;;22.53;;
34920;SDS011;21128;50.016;20.002;2023-06-14T05:32:25;48.97;;;23.43;;
34920;SDS011;21128;50.016;20.002;2023-06-14T05:34:52;45.38;;;21.77;;
34920;SDS011;21128;50.016;20.002;2023-06-14T05:37:19;37.53;;;20.40;;
34920;SDS011;21128;50.016;20.002;2023-06-14T05:39:46;44.25;;;21.23;;
34920;SDS011;21128;50.016;20.002;2023-06-14T05:42:13;48.87;;;22.53;;
34920;SDS011;21128;50.016;20.002;2023-06-14T05:44:40;44.70;;;21.77;;
34920;SDS011;21128;50.016;20.002;2023-06-14T05:47:07;48.70;;;23.30;;
34920;SDS011;21128;50.016;20.002;2023-06-14T05:49:34;43.73;;;23.52;;
34920;SDS011;21128;50.016;20.002;2023-06-14T05:52:03;46.17;;;22.20;;
34920;SDS011;21128;50.016;20.002;2023-06-14T05:54:31;41.80;;;20.97;;
34920;SDS011;21128;50.016;20.002;2023-06-14T05:56:58;40.52;;;20.65;;
34920;SDS011;21128;50.016;20.002;2023-06-14T05:59:29;41.17;;;21.63;;
34920;SDS011;21128;50.016;20.002;2023-06-14T06:01:56;40.90;;;21.95;;
34920;SDS011;21128;50.016;20.002;2023-06-14T06:04:23;41.00;;;20.83;;
34920;SDS011;21128;50.016;20.002;2023-06-14T06:06:50;41.45;;;20.30;;
34920;SDS011;21128;50.016;20.002;2023-06-14T06:09:18;39.50;;;20.67;;
34920;SDS011;21128;50.016;20.002;2023-06-14T06:11:45;37.47;;;20.80;;
34920;SDS011;21128;50.016;20.002;2023-06-14T06:14:12;42.40;;;21.93;;
34920;SDS011;21128;50.016;20.002;2023-06-14T06:16:39;39.30;;;21.07;;
34920;SDS011;21128;50.016;20.002;2023-06-14T06:19:06;40.67;;;20.13;;
34920;SDS011;21128;50.016;20.002;2023-06-14T06:21:33;37.47;;;20.17;;
34920;SDS011;21128;50.016;20.002;2023-06-14T06:24:00;38.43;;;21.23;;
34920;SDS011;21128;50.016;20.002;2023-06-14T06:26:30;32.20;;;19.50;;
34920;SDS011;21128;50.016;20.002;2023-06-14T06:28:56;33.67;;;19.50;;
34920;SDS011;21128;50.016;20.002;2023-06-14T06:31:24;37.60;;;19.37;;
34920;SDS011;21128;50.016;20.002;2023-06-14T06:33:52;41.47;;;17.87;;
34920;SDS011;21128;50.016;20.002;2023-06-14T06:36:20;31.67;;;18.27;;
34920;SDS011;21128;50.016;20.002;2023-06-14T06:38:48;43.70;;;19.17;;
34920;SDS011;21128;50.016;20.002;2023-06-14T06:41:15;32.07;;;18.93;;
34920;SDS011;21128;50.016;20.002;2023-06-14T06:43:42;42.43;;;18.67;;
34920;SDS011;21128;50.016;20.002;2023-06-14T06:46:09;43.93;;;18.97;;
34920;SDS011;21128;50.016;20.002;2023-06-14T06:48:36;33.40;;;17.27;;
34920;SDS011;21128;50.016;20.002;2023-06-14T06:51:03;32.20;;;17.50;;
34920;SDS011;21128;50.016;20.002;2023-06-14T06:53:30;36.20;;;19.50;;
34920;SDS011;21128;50.016;20.002;2023-06-14T06:55:57;38.07;;;20.73;;
34920;SDS011;21128;50.016;20.002;2023-06-14T06:58:24;38.63;;;19.13;;
34920;SDS011;21128;50.016;20.002;2023-06-14T07:00:51;32.53;;;19.00;;
34920;SDS011;21128;50.016;20.002;2023-06-14T07:03:18;39.23;;;19.63;;
34920;SDS011;21128;50.016;20.002;2023-06-14T07:05:45;33.58;;;18.92;;
34920;SDS011;21128;50.016;20.002;2023-06-14T07:08:12;37.80;;;18.70;;
34920;SDS011;21128;50.016;20.002;2023-06-14T07:10:39;36.30;;;18.27;;
34920;SDS011;21128;50.016;20.002;2023-06-14T07:13:06;34.67;;;18.73;;
34920;SDS011;21128;50.016;20.002;2023-06-14T07:15:33;35.00;;;18.40;;
34920;SDS011;21128;50.016;20.002;2023-06-14T07:18:00;35.00;;;18.53;;
34920;SDS011;21128;50.016;20.002;2023-06-14T07:20:27;29.53;;;16.87;;
34920;SDS011;21128;50.016;20.002;2023-06-14T07:22:54;27.70;;;17.47;;
34920;SDS011;21128;50.016;20.002;2023-06-14T07:25:21;30.05;;;16.85;;
34920;SDS011;21128;50.016;20.002;2023-06-14T07:27:49;32.80;;;17.77;;
34920;SDS011;21128;50.016;20.002;2023-06-14T07:30:16;25.63;;;15.90;;
34920;SDS011;21128;50.016;20.002;2023-06-14T07:32:43;21.27;;;12.93;;
34920;SDS011;21128;50.016;20.002;2023-06-14T07:35:10;20.67;;;12.20;;
34920;SDS011;21128;50.016;20.002;2023-06-14T07:37:37;23.20;;;12.80;;
34920;SDS011;21128;50.016;20.002;2023-06-14T07:40:04;21.00;;;12.83;;
34920;SDS011;21128;50.016;20.002;2023-06-14T07:42:34;23.15;;;12.95;;
34920;SDS011;21128;50.016;20.002;2023-06-14T07:45:03;25.47;;;14.00;;
34920;SDS011;21128;50.016;20.002;2023-06-14T07:47:31;18.70;;;11.07;;
34920;SDS011;21128;50.016;20.002;2023-06-14T07:49:58;24.95;;;13.05;;
34920;SDS011;21128;50.016;20.002;2023-06-14T07:52:26;24.53;;;12.97;;
34920;SDS011;21128;50.016;20.002;2023-06-14T07:54:53;19.97;;;12.23;;
34920;SDS011;21128;50.016;20.002;2023-06-14T07:57:20;13.80;;;9.67;;
34920;SDS011;21128;50.016;20.002;2023-06-14T07:59:47;19.27;;;11.07;;
34920;SDS011;21128;50.016;20.002;2023-06-14T08:02:14;12.70;;;8.10;;
34920;SDS011;21128;50.016;20.002;2023-06-14T08:04:41;12.70;;;8.80;;
34920;SDS011;21128;50.016;20.002;2023-06-14T08:07:09;12.75;;;9.05;;
34920;SDS011;21128;50.016;20.002;2023-06-14T08:09:36;13.87;;;8.70;;
34920;SDS011;21128;50.016;20.002;2023-06-14T08:12:06;7.67;;;6.10;;
34920;SDS011;21128;50.016;20.002;2023-06-14T08:14:36;9.23;;;6.33;;
34920;SDS011;21128;50.016;20.002;2023-06-14T08:17:04;8.73;;;5.08;;
34920;SDS011;21128;50.016;20.002;2023-06-14T08:19:31;5.37;;;3.83;;
34920;SDS011;21128;50.016;20.002;2023-06-14T08:21:58;6.07;;;4.00;;
34920;SDS011;21128;50.016;20.002;2023-06-14T08:24:26;5.87;;;3.70;;
34920;SDS011;21128;50.016;20.002;2023-06-14T08:26:53;4.87;;;3.47;;
34920;SDS011;21128;50.016;20.002;2023-06-14T08:29:20;6.15;;;3.85;;
34920;SDS011;21128;50.016;20.002;2023-06-14T08:31:47;3.20;;;2.90;;
34920;SDS011;21128;50.016;20.002;2023-06-14T08:34:14;3.35;;;2.55;;
34920;SDS011;21128;50.016;20.002;2023-06-14T08:36:41;4.63;;;2.73;;
34920;SDS011;21128;50.016;20.002;2023-06-14T08:39:08;2.25;;;2.08;;
34920;SDS011;21128;50.016;20.002;2023-06-14T08:41:35;4.27;;;2.10;;
34920;SDS011;21128;50.016;20.002;2023-06-14T08:44:03;2.80;;;2.20;;
34920;SDS011;21128;50.016;20.002;2023-06-14T08:46:32;2.00;;;1.77;;
34920;SDS011;21128;50.016;20.002;2023-06-14T08:49:01;2.83;;;2.27;;
34920;SDS011;21128;50.016;20.002;2023-06-14T08:51:30;4.47;;;2.80;;
34920;SDS011;21128;50.016;20.002;2023-06-14T08:54:03;2.50;;;2.30;;
34920;SDS011;21128;50.016;20.002;2023-06-14T08:56:31;5.50;;;2.80;;
34920;SDS011;21128;50.016;20.002;2023-06-14T08:59:00;3.27;;;2.87;;
34920;SDS011;21128;50.016;20.002;2023-06-14T09:01:33;4.30;;;2.80;;
34920;SDS011;21128;50.016;20.002;2023-06-14T09:04:01;3.40;;;2.83;;
34920;SDS011;21128;50.016;20.002;2023-06-14T09:06:29;3.40;;;3.10;;
34920;SDS011;21128;50.016;20.002;2023-06-14T09:08:56;3.40;;;3.10;;
34920;SDS011;21128;50.016;20.002;2023-06-14T09:11:24;3.63;;;3.03;;
34920;SDS011;21128;50.016;20.002;2023-06-14T09:13:53;5.17;;;3.50;;
34920;SDS011;21128;50.016;20.002;2023-06-14T09:16:20;4.90;;;3.77;;
34920;SDS011;21128;50.016;20.002;2023-06-14T09:18:47;4.20;;;3.30;;
34920;SDS011;21128;50.016;20.002;2023-06-14T09:21:15;4.20;;;3.80;;
34920;SDS011;21128;50.016;20.002;2023-06-14T09:23:46;6.77;;;4.30;;
34920;SDS011;21128;50.016;20.002;2023-06-14T09:26:15;8.63;;;5.57;;
34920;SDS011;21128;50.016;20.002;2023-06-14T09:28:47;6.90;;;5.30;;
34920;SDS011;21128;50.016;20.002;2023-06-14T09:31:19;9.10;;;4.40;;
34920;SDS011;21128;50.016;20.002;2023-06-14T09:33:48;8.03;;;4.47;;
34920;SDS011;21128;50.016;20.002;2023-06-14T09:36:18;5.23;;;4.33;;
34920;SDS011;21128;50.016;20.002;2023-06-14T09:38:55;5.57;;;4.67;;
34920;SDS011;21128;50.016;20.002;2023-06-14T09:41:33;7.23;;;4.67;;
34920;SDS011;21128;50.016;20.002;2023-06-14T09:44:05;6.40;;;4.80;;
34920;SDS011;21128;50.016;20.002;2023-06-14T09:46:35;7.60;;;5.27;;
34920;SDS011;21128;50.016;20.002;2023-06-14T09:49:03;10.20;;;5.77;;
34920;SDS011;21128;50.016;20.002;2023-06-14T09:51:31;5.83;;;4.77;;
34920;SDS011;21128;50.016;20.002;2023-06-14T09:53:59;9.30;;;5.17;;
34920;SDS011;21128;50.016;20.002;2023-06-14T09:56:28;6.87;;;5.07;;
34920;SDS011;21128;50.016;20.002;2023-06-14T09:58:58;8.17;;;6.30;;
34920;SDS011;21128;50.016;20.002;2023-06-14T10:01:26;7.17;;;5.63;;
34920;SDS011;21128;50.016;20.002;2023-06-14T10:04:06;7.03;;;5.17;;
34920;SDS011;21128;50.016;20.002;2023-06-14T10:06:43;7.45;;;5.50;;
34920;SDS011;21128;50.016;20.002;2023-06-14T10:09:12;8.33;;;5.47;;
34920;SDS011;21128;50.016;20.002;2023-06-14T10:11:40;7.27;;;5.53;;
34920;SDS011;21128;50.016;20.002;2023-06-14T10:14:11;7.80;;;5.53;;
34920;SDS011;21128;50.016;20.002;2023-06-14T10:19:32;9.10;;;5.80;;
34920;SDS011;21128;50.016;20.002;2023-06-14T10:22:10;6.67;;;5.57;;
34920;SDS011;21128;50.016;20.002;2023-06-14T10:24:43;6.70;;;5.30;;
34920;SDS011;21128;50.016;20.002;2023-06-14T10:27:15;6.13;;;5.53;;
34920;SDS011;21128;50.016;20.002;2023-06-14T10:32:20;9.00;;;6.00;;
34920;SDS011;21128;50.016;20.002;2023-06-14T10:35:04;8.03;;;5.80;;
34920;SDS011;21128;50.016;20.002;2023-06-14T10:37:38;7.20;;;5.50;;
34920;SDS011;21128;50.016;20.002;2023-06-14T10:40:05;6.12;;;5.08;;
34920;SDS011;21128;50.016;20.002;2023-06-14T10:42:35;6.37;;;5.30;;
34920;SDS011;21128;50.016;20.002;2023-06-14T10:45:17;7.07;;;6.07;;
34920;SDS011;21128;50.016;20.002;2023-06-14T10:47:44;6.87;;;5.95;;
34920;SDS011;21128;50.016;20.002;2023-06-14T10:50:19;6.67;;;5.37;;
34920;SDS011;21128;50.016;20.002;2023-06-14T10:52:56;7.10;;;5.93;;
34920;SDS011;21128;50.016;20.002;2023-06-14T10:55:23;7.77;;;5.43;;
34920;SDS011;21128;50.016;20.002;2023-06-14T10:57:58;8.47;;;5.80;;
34920;SDS011;21128;50.016;20.002;2023-06-14T11:00:39;9.07;;;6.70;;
34920;SDS011;21128;50.016;20.002;2023-06-14T11:05:52;7.73;;;6.87;;
34920;SDS011;21128;50.016;20.002;2023-06-14T11:10:56;7.77;;;6.70;;
34920;SDS011;21128;50.016;20.002;2023-06-14T11:13:27;8.00;;;6.62;;
34920;SDS011;21128;50.016;20.002;2023-06-14T11:15:55;8.13;;;6.67;;
34920;SDS011;21128;50.016;20.002;2023-06-14T11:18:24;8.65;;;6.70;;
34920;SDS011;21128;50.016;20.002;2023-06-14T11:20:53;8.90;;;7.50;;
34920;SDS011;21128;50.016;20.002;2023-06-14T11:23:21;10.73;;;7.70;;
34920;SDS011;21128;50.016;20.002;2023-06-14T11:25:52;8.70;;;7.70;;
34920;SDS011;21128;50.016;20.002;2023-06-14T11:28:19;8.13;;;7.33;;
34920;SDS011;21128;50.016;20.002;2023-06-14T11:30:48;10.40;;;8.10;;
34920;SDS011;21128;50.016;20.002;2023-06-14T11:33:35;8.17;;;7.23;;
34920;SDS011;21128;50.016;20.002;2023-06-14T11:36:03;8.53;;;7.40;;
34920;SDS011;21128;50.016;20.002;2023-06-14T11:38:37;15.63;;;7.70;;
34920;SDS011;21128;50.016;20.002;2023-06-14T11:41:04;8.17;;;7.37;;
34920;SDS011;21128;50.016;20.002;2023-06-14T11:43:31;8.87;;;7.13;;
34920;SDS011;21128;50.016;20.002;2023-06-14T11:46:00;7.15;;;6.05;;
34920;SDS011;21128;50.016;20.002;2023-06-14T11:48:41;8.63;;;6.97;;
34920;SDS011;21128;50.016;20.002;2023-06-14T11:51:09;10.87;;;7.07;;
34920;SDS011;21128;50.016;20.002;2023-06-14T11:53:37;8.67;;;6.40;;
34920;SDS011;21128;50.016;20.002;2023-06-14T11:56:05;8.60;;;6.63;;
34920;SDS011;21128;50.016;20.002;2023-06-14T11:58:32;9.40;;;6.30;;
34920;SDS011;21128;50.016;20.002;2023-06-14T12:01:00;8.13;;;5.57;;
34920;SDS011;21128;50.016;20.002;2023-06-14T12:03:27;7.67;;;5.63;;
34920;SDS011;21128;50.016;20.002;2023-06-14T12:06:05;8.77;;;6.50;;
34920;SDS011;21128;50.016;20.002;2023-06-14T12:08:36;10.23;;;7.93;;
34920;SDS011;21128;50.016;20.002;2023-06-14T12:11:10;9.57;;;7.80;;
34920;SDS011;21128;50.016;20.002;2023-06-14T12:13:40;9.27;;;7.30;;
34920;SDS011;21128;50.016;20.002;2023-06-14T12:16:08;10.70;;;7.20;;
34920;SDS011;21128;50.016;20.002;2023-06-14T12:18:37;8.80;;;6.63;;
34920;SDS011;21128;50.016;20.002;2023-06-14T12:21:06;8.33;;;7.10;;
34920;SDS011;21128;50.016;20.002;2023-06-14T12:23:46;8.93;;;7.77;;
34920;SDS011;21128;50.016;20.002;2023-06-14T12:26:15;10.53;;;8.97;;
34920;SDS011;21128;50.016;20.002;2023-06-14T12:28:44;12.75;;;8.75;;
34920;SDS011;21128;50.016;20.002;2023-06-14T12:31:12;11.47;;;9.20;;
34920;SDS011;21128;50.016;20.002;2023-06-14T12:33:41;13.00;;;8.97;;
34920;SDS011;21128;50.016;20.002;2023-06-14T12:36:09;9.87;;;7.50;;
34920;SDS011;21128;50.016;20.002;2023-06-14T12:38:37;10.87;;;6.70;;
34920;SDS011;21128;50.016;20.002;2023-06-14T12:41:04;9.23;;;6.60;;
34920;SDS011;21128;50.016;20.002;2023-06-14T12:43:32;7.47;;;5.90;;
34920;SDS011;21128;50.016;20.002;2023-06-14T12:45:59;10.43;;;6.28;;
34920;SDS011;21128;50.016;20.002;2023-06-14T12:48:29;9.17;;;6.53;;
34920;SDS011;21128;50.016;20.002;2023-06-14T12:50:57;7.65;;;5.45;;
34920;SDS011;21128;50.016;20.002;2023-06-14T12:53:25;8.17;;;5.27;;
34920;SDS011;21128;50.016;20.002;2023-06-14T12:55:52;9.40;;;5.93;;
34920;SDS011;21128;50.016;20.002;2023-06-14T12:58:19;7.57;;;6.43;;
34920;SDS011;21128;50.016;20.002;2023-06-14T13:00:46;9.10;;;4.50;;
34920;SDS011;21128;50.016;20.002;2023-06-14T13:03:14;8.43;;;5.80;;
34920;SDS011;21128;50.016;20.002;2023-06-14T13:05:41;8.63;;;6.08;;
34920;SDS011;21128;50.016;20.002;2023-06-14T13:08:09;7.77;;;5.40;;
34920;SDS011;21128;50.016;20.002;2023-06-14T13:10:36;6.80;;;5.23;;
34920;SDS011;21128;50.016;20.002;2023-06-14T13:13:03;8.10;;;5.03;;
34920;SDS011;21128;50.016;20.002;2023-06-14T13:15:30;6.93;;;4.27;;
34920;SDS011;21128;50.016;20.002;2023-06-14T13:17:57;4.87;;;3.77;;
34920;SDS011;21128;50.016;20.002;2023-06-14T13:20:24;5.35;;;4.45;;
34920;SDS011;21128;50.016;20.002;2023-06-14T13:22:51;7.80;;;4.73;;
34920;SDS011;21128;50.016;20.002;2023-06-14T13:25:19;6.05;;;4.10;;
34920;SDS011;21128;50.016;20.002;2023-06-14T13:27:46;8.07;;;4.83;;
34920;SDS011;21128;50.016;20.002;2023-06-14T13:30:13;9.73;;;5.73;;
34920;SDS011;21128;50.016;20.002;2023-06-14T13:32:40;9.53;;;5.87;;
34920;SDS011;21128;50.016;20.002;2023-06-14T13:35:07;6.83;;;5.27;;
34920;SDS011;21128;50.016;20.002;2023-06-14T13:37:34;10.33;;;4.93;;
34920;SDS011;21128;50.016;20.002;2023-06-14T13:40:01;6.93;;;4.70;;
34920;SDS011;21128;50.016;20.002;2023-06-14T13:42:29;7.90;;;4.30;;
34920;SDS011;21128;50.016;20.002;2023-06-14T13:44:58;9.77;;;4.63;;
34920;SDS011;21128;50.016;20.002;2023-06-14T13:47:25;8.65;;;4.97;;
34920;SDS011;21128;50.016;20.002;2023-06-14T13:49:52;8.80;;;5.17;;
34920;SDS011;21128;50.016;20.002;2023-06-14T13:52:19;8.00;;;4.67;;
34920;SDS011;21128;50.016;20.002;2023-06-14T13:54:47;5.20;;;4.10;;
34920;SDS011;21128;50.016;20.002;2023-06-14T13:57:14;9.73;;;4.10;;
34920;SDS011;21128;50.016;20.002;2023-06-14T13:59:41;7.90;;;4.57;;
34920;SDS011;21128;50.016;20.002;2023-06-14T14:02:10;4.37;;;3.73;;
34920;SDS011;21128;50.016;20.002;2023-06-14T14:04:38;8.27;;;3.90;;
34920;SDS011;21128;50.016;20.002;2023-06-14T14:07:06;3.83;;;3.00;;
34920;SDS011;21128;50.016;20.002;2023-06-14T14:09:34;8.30;;;3.80;;
34920;SDS011;21128;50.016;20.002;2023-06-14T14:12:02;8.67;;;5.67;;
34920;SDS011;21128;50.016;20.002;2023-06-14T14:14:30;7.97;;;4.50;;
34920;SDS011;21128;50.016;20.002;2023-06-14T14:16:59;5.40;;;3.77;;
34920;SDS011;21128;50.016;20.002;2023-06-14T14:19:26;10.88;;;3.40;;
34920;SDS011;21128;50.016;20.002;2023-06-14T14:21:53;6.57;;;4.00;;
34920;SDS011;21128;50.016;20.002;2023-06-14T14:24:22;7.13;;;3.97;;
34920;SDS011;21128;50.016;20.002;2023-06-14T14:26:50;10.28;;;4.03;;
34920;SDS011;21128;50.016;20.002;2023-06-14T14:29:20;8.37;;;4.10;;
34920;SDS011;21128;50.016;20.002;2023-06-14T14:31:47;8.80;;;3.75;;
34920;SDS011;21128;50.016;20.002;2023-06-14T14:34:14;4.57;;;3.70;;
34920;SDS011;21128;50.016;20.002;2023-06-14T14:36:43;8.23;;;4.33;;
34920;SDS011;21128;50.016;20.002;2023-06-14T14:39:10;6.80;;;3.50;;
34920;SDS011;21128;50.016;20.002;2023-06-14T14:41:38;8.70;;;4.20;;